Time;durP1;ratioP1;P1;durP2;ratioP2;P2;SDS_P1;SDS_P2;PMS_P1;PMS_P2;Temp;Humidity;BMP_temperature;BMP_pressure;BME280_temperature;BME280_humidity;BME280_pressure;Samples;Min_cycle;Max_cycle;Signal;HPM_P1;HPM_P2
2021/08/02 00:00:58;;;;;;;14.18;9.88;;;;;;;31.13;82.62;100228.94;4918670;29;20039;-72
2021/08/02 00:03:49;;;;;;;16.65;10.65;;;;;;;30.87;84.43;100223.69;4918649;29;20451;-71
2021/08/02 00:07:05;;;;;;;16.83;10.65;;;;;;;30.81;85.08;100235.19;4918411;29;20055;-72
2021/08/02 00:09:54;;;;;;;13.15;10.50;;;;;;;30.96;83.79;100225.41;4918460;29;20056;-72
2021/08/02 00:12:46;;;;;;;16.98;10.50;;;;;;;30.77;84.64;100224.84;4918584;29;20056;-71
2021/08/02 00:15:32;;;;;;;16.42;10.38;;;;;;;30.73;84.74;100218.94;4918618;29;20028;-72
2021/08/02 00:18:17;;;;;;;17.05;10.70;;;;;;;30.84;84.12;100220.47;4918311;29;20377;-72
2021/08/02 00:21:06;;;;;;;19.45;10.68;;;;;;;30.55;85.47;100220.94;4917927;29;20032;-72
2021/08/02 00:23:52;;;;;;;16.52;10.02;;;;;;;30.60;85.24;100221.28;4918406;29;20044;-71
2021/08/02 00:26:39;;;;;;;15.60;10.38;;;;;;;30.75;83.99;100210.66;4918209;29;20119;-72
2021/08/02 00:29:25;;;;;;;13.38;10.27;;;;;;;30.86;82.92;100215.75;4918566;29;20036;-72
2021/08/02 00:32:13;;;;;;;18.75;10.73;;;;;;;30.71;82.93;100223.69;4917250;29;20441;-72
2021/08/02 00:35:00;;;;;;;19.90;10.57;;;;;;;30.74;83.60;100217.94;4918712;29;20080;-72
2021/08/02 00:38:06;;;;;;;16.35;10.60;;;;;;;30.84;83.16;100225.88;4918020;29;20028;-72
2021/08/02 00:41:06;;;;;;;20.17;10.35;;;;;;;30.60;85.31;100223.97;4918379;29;20056;-72
2021/08/02 00:44:30;;;;;;;15.80;11.10;;;;;;;30.33;86.61;100218.81;4917146;29;20123;-72
2021/08/02 00:47:23;;;;;;;15.82;10.43;;;;;;;30.46;85.72;100221.06;4918660;29;20032;-72
2021/08/02 00:50:12;;;;;;;14.38;10.95;;;;;;;30.54;84.44;100224.63;4918137;29;20028;-72
2021/08/02 00:53:14;;;;;;;14.90;11.02;;;;;;;30.48;84.36;100219.91;4919115;29;20099;-72
2021/08/02 00:56:03;;;;;;;17.23;10.73;;;;;;;30.55;84.51;100228.19;4917957;29;20039;-72
2021/08/02 00:58:48;;;;;;;15.50;10.88;;;;;;;30.42;85.16;100225.94;4917793;29;20052;-72
2021/08/02 01:01:36;;;;;;;13.63;10.23;;;;;;;30.50;84.39;100225.97;4917804;29;20099;-72
2021/08/02 01:04:23;;;;;;;17.63;10.32;;;;;;;30.46;84.60;100227.31;4917309;29;20123;-72
2021/08/02 01:07:11;;;;;;;18.52;10.90;;;;;;;30.44;84.54;100234.75;4916829;29;20028;-71
2021/08/02 01:09:58;;;;;;;16.88;10.35;;;;;;;30.48;82.90;100228.00;4918058;29;20032;-71
2021/08/02 01:12:48;;;;;;;16.50;10.45;;;;;;;30.55;81.95;100222.78;4917604;29;20036;-71
2021/08/02 01:15:34;;;;;;;16.42;10.90;;;;;;;30.69;81.17;100227.56;4917227;29;20032;-72
2021/08/02 01:18:22;;;;;;;17.20;11.15;;;;;;;30.60;80.47;100228.53;4917001;29;20028;-71
2021/08/02 01:21:14;;;;;;;16.23;10.63;;;;;;;30.95;77.41;100234.50;4917880;29;20028;-71
2021/08/02 01:24:00;;;;;;;16.17;10.48;;;;;;;30.93;77.08;100231.16;4917267;29;20028;-72
2021/08/02 01:26:45;;;;;;;19.55;10.00;;;;;;;30.93;76.43;100235.69;4918125;29;20032;-72
2021/08/02 01:30:09;;;;;;;16.13;10.65;;;;;;;30.90;75.98;100223.34;4917076;29;20465;-71
2021/08/02 01:32:54;;;;;;;15.65;10.57;;;;;;;30.90;75.27;100225.25;4917761;29;20028;-72
2021/08/02 01:35:41;;;;;;;12.93;10.48;;;;;;;30.94;73.84;100219.31;4917838;29;20036;-72
2021/08/02 01:38:29;;;;;;;24.48;10.43;;;;;;;30.98;73.21;100226.06;4917905;29;20032;-72
2021/08/02 01:41:14;;;;;;;14.57;10.48;;;;;;;31.03;72.96;100228.28;4918230;29;20090;-72
2021/08/02 01:44:00;;;;;;;16.63;10.15;;;;;;;30.81;71.71;100228.91;4920388;29;20036;-71
2021/08/02 01:47:08;;;;;;;15.60;10.60;;;;;;;30.81;71.44;100231.63;4921056;29;20039;-71
2021/08/02 01:49:54;;;;;;;16.55;10.55;;;;;;;30.96;70.24;100229.97;4921687;29;20028;-71
2021/08/02 01:53:02;;;;;;;16.67;10.43;;;;;;;30.84;71.25;100220.47;4921135;29;20063;-71
2021/08/02 01:56:02;;;;;;;21.05;11.07;;;;;;;30.81;72.08;100232.50;4920042;29;20080;-71
2021/08/02 01:59:05;;;;;;;22.83;10.48;;;;;;;30.81;72.72;100237.03;4920747;29;20099;-71
2021/08/02 02:02:02;;;;;;;15.38;10.10;;;;;;;30.63;73.56;100239.88;4921099;29;20051;-71
2021/08/02 02:05:08;;;;;;;18.77;10.68;;;;;;;30.62;73.79;100237.34;4921237;29;20406;-71
2021/08/02 02:08:10;;;;;;;15.80;11.70;;;;;;;30.78;71.73;100234.69;4920577;29;20044;-71
2021/08/02 02:10:58;;;;;;;22.88;11.00;;;;;;;30.30;73.60;100243.47;4920812;29;20028;-71
2021/08/02 02:13:47;;;;;;;23.45;11.32;;;;;;;30.36;73.81;100239.28;4920471;29;20039;-71
2021/08/02 02:16:38;;;;;;;18.83;10.45;;;;;;;30.41;73.18;100245.88;4920704;29;20040;-71
2021/08/02 02:19:26;;;;;;;18.33;11.10;;;;;;;30.69;71.58;100249.19;4920283;29;20028;-71
2021/08/02 02:22:12;;;;;;;18.60;10.30;;;;;;;30.45;72.95;100249.09;4920772;29;20468;-71
2021/08/02 02:24:58;;;;;;;18.90;10.43;;;;;;;30.50;72.10;100253.00;4919581;29;20064;-71
2021/08/02 02:27:45;;;;;;;22.15;11.32;;;;;;;30.65;70.79;100256.78;4920761;29;20016;-71
2021/08/02 02:30:31;;;;;;;15.05;10.38;;;;;;;30.40;72.06;100246.91;4920461;29;20088;-71
2021/08/02 02:33:17;;;;;;;15.50;10.77;;;;;;;30.59;71.08;100259.28;4920494;29;20121;-71
2021/08/02 02:36:05;;;;;;;19.88;10.63;;;;;;;30.55;71.79;100253.38;4919608;29;20036;-71
2021/08/02 02:38:53;;;;;;;16.25;10.85;;;;;;;30.73;69.72;100250.56;4920893;29;20515;-71
2021/08/02 02:41:41;;;;;;;20.45;11.45;;;;;;;30.79;68.66;100250.72;4919823;29;20040;-71
2021/08/02 02:44:28;;;;;;;19.00;10.98;;;;;;;30.66;69.07;100254.94;4920879;29;20133;-72
2021/08/02 02:47:14;;;;;;;15.50;10.73;;;;;;;30.58;67.72;100257.59;4920089;29;20032;-72
2021/08/02 02:50:02;;;;;;;18.63;11.15;;;;;;;30.36;68.26;100252.78;4919809;29;20059;-71
2021/08/02 02:52:48;;;;;;;23.80;11.15;;;;;;;30.56;67.13;100248.81;4919239;29;20107;-71
2021/08/02 02:55:36;;;;;;;18.98;10.13;;;;;;;30.57;64.99;100262.16;4918290;29;20070;-72
2021/08/02 02:58:21;;;;;;;22.23;10.60;;;;;;;30.77;63.69;100263.59;4919719;29;20059;-71
2021/08/02 03:01:08;;;;;;;24.20;9.93;;;;;;;30.87;62.47;100256.16;4919769;29;20127;-71
2021/08/02 03:03:58;;;;;;;22.15;9.85;;;;;;;30.46;64.07;100267.03;4919531;29;20087;-71
2021/08/02 03:06:44;;;;;;;19.27;10.70;;;;;;;30.56;62.85;100262.31;4919285;29;20039;-71
2021/08/02 03:09:35;;;;;;;27.30;10.60;;;;;;;30.51;63.46;100272.78;4920114;29;20028;-71
2021/08/02 03:12:21;;;;;;;16.33;10.23;;;;;;;30.50;63.46;100276.53;4919619;29;20055;-71
2021/08/02 03:15:07;;;;;;;23.50;9.43;;;;;;;30.85;61.91;100278.97;4919704;29;20122;-71
2021/08/02 03:17:53;;;;;;;20.17;9.82;;;;;;;30.82;61.23;100279.34;4919358;29;20119;-72
2021/08/02 03:20:42;;;;;;;21.30;10.80;;;;;;;30.49;63.23;100286.47;4919044;29;20027;-72
2021/08/02 03:24:04;;;;;;;22.83;10.02;;;;;;;30.58;62.39;100288.19;4919942;29;20036;-72
2021/08/02 03:27:02;;;;;;;20.00;9.77;;;;;;;30.80;61.93;100284.91;4919473;29;20040;-72
2021/08/02 03:29:50;;;;;;;22.27;10.02;;;;;;;30.97;60.66;100274.94;4918849;29;20513;-71
2021/08/02 03:32:36;;;;;;;23.33;9.93;;;;;;;30.85;60.47;100292.50;4919787;29;20505;-71
2021/08/02 03:35:23;;;;;;;18.55;9.90;;;;;;;30.54;61.71;100291.41;4918745;29;20414;-71
2021/08/02 03:38:10;;;;;;;23.25;9.93;;;;;;;30.52;61.50;100290.72;4918729;29;20463;-71
2021/08/02 03:40:57;;;;;;;17.85;9.77;;;;;;;30.88;60.16;100295.75;4917987;29;20119;-72
2021/08/02 03:43:44;;;;;;;20.42;10.48;;;;;;;30.52;61.37;100290.72;4918577;29;20524;-72
2021/08/02 03:46:30;;;;;;;20.00;9.57;;;;;;;30.64;61.13;100294.81;4919170;29;20055;-71
2021/08/02 03:49:16;;;;;;;26.70;10.45;;;;;;;30.63;61.12;100293.97;4918400;29;20024;-72
2021/08/02 03:52:03;;;;;;;22.65;10.13;;;;;;;30.65;61.37;100300.06;4919018;29;20042;-72
2021/08/02 03:54:48;;;;;;;26.38;10.65;;;;;;;30.65;61.59;100286.53;4919079;29;20032;-72
2021/08/02 03:57:35;;;;;;;22.02;10.75;;;;;;;30.73;61.48;100289.28;4918820;29;20044;-71
2021/08/02 04:00:21;;;;;;;18.23;9.77;;;;;;;30.84;60.96;100286.28;4919002;29;20036;-72
2021/08/02 04:03:08;;;;;;;25.73;10.70;;;;;;;30.82;60.68;100288.28;4918483;29;20064;-71
2021/08/02 04:05:54;;;;;;;25.02;10.32;;;;;;;30.83;60.64;100287.25;4917642;29;20115;-71
2021/08/02 04:08:40;;;;;;;26.27;10.00;;;;;;;31.12;60.51;100292.22;4918286;29;20444;-72
2021/08/02 04:11:26;;;;;;;22.13;10.20;;;;;;;31.24;59.72;100293.63;4918713;29;20164;-71
2021/08/02 04:14:13;;;;;;;30.15;10.52;;;;;;;31.09;60.14;100301.53;4918555;29;20365;-71
2021/08/02 04:16:58;;;;;;;25.02;10.43;;;;;;;31.39;59.42;100300.88;4918358;29;20028;-71
2021/08/02 04:19:44;;;;;;;29.42;10.50;;;;;;;31.33;59.41;100301.59;4918215;29;20373;-71
2021/08/02 04:22:30;;;;;;;24.60;10.68;;;;;;;31.38;60.18;100304.63;4918579;29;20028;-71
2021/08/02 04:25:16;;;;;;;24.48;10.32;;;;;;;31.21;61.25;100289.38;4918176;29;20350;-72
2021/08/02 04:28:01;;;;;;;31.73;11.00;;;;;;;31.27;61.90;100288.69;4917611;29;20361;-72
2021/08/02 04:30:47;;;;;;;21.40;10.65;;;;;;;31.36;61.26;100294.97;4917521;29;20453;-70
2021/08/02 04:33:33;;;;;;;25.23;10.05;;;;;;;31.47;64.45;100297.34;4918272;29;20032;-71
2021/08/02 04:36:19;;;;;;;25.75;10.63;;;;;;;31.61;62.17;100299.34;4917894;29;20035;-72
2021/08/02 04:39:05;;;;;;;26.70;10.73;;;;;;;31.76;61.42;100292.25;4917982;29;20060;-72
2021/08/02 04:41:51;;;;;;;26.55;10.27;;;;;;;31.70;64.01;100292.06;4918579;29;20021;-71
2021/08/02 04:44:37;;;;;;;23.02;10.07;;;;;;;31.54;64.59;100301.06;4918087;29;20036;-72
2021/08/02 04:47:22;;;;;;;22.90;10.15;;;;;;;31.55;65.29;100310.03;4918280;29;20038;-72
2021/08/02 04:50:09;;;;;;;23.58;10.07;;;;;;;31.98;60.99;100315.91;4917931;29;20028;-71
2021/08/02 04:52:54;;;;;;;26.08;10.18;;;;;;;31.95;60.28;100316.28;4918174;29;20111;-72
2021/08/02 04:55:40;;;;;;;27.33;10.50;;;;;;;32.13;59.08;100324.19;4918230;29;20047;-72
2021/08/02 04:58:26;;;;;;;30.33;10.55;;;;;;;32.18;59.98;100328.06;4917740;29;20127;-71
2021/08/02 05:01:12;;;;;;;25.77;10.40;;;;;;;31.99;60.80;100324.91;4917804;29;20028;-71
2021/08/02 05:03:58;;;;;;;21.15;11.57;;;;;;;31.83;74.57;100328.50;4917982;29;20043;-71
2021/08/02 05:06:43;;;;;;;22.83;13.10;;;;;;;31.63;91.84;100331.69;4917856;29;20103;-71
2021/08/02 05:09:29;;;;;;;29.38;14.18;;;;;;;31.28;100.00;100338.28;4917900;29;20028;-71
2021/08/02 05:12:17;;;;;;;23.55;13.77;;;;;;;30.90;100.00;100347.84;4917119;29;20051;-72
2021/08/02 05:15:05;;;;;;;25.10;13.20;;;;;;;30.55;100.00;100344.47;4917753;29;20032;-72
2021/08/02 05:17:51;;;;;;;22.85;13.75;;;;;;;30.45;100.00;100338.34;4919966;29;20028;-72
2021/08/02 05:20:37;;;;;;;27.33;13.65;;;;;;;30.38;100.00;100342.72;4921718;29;20625;-71
2021/08/02 05:23:23;;;;;;;38.72;14.05;;;;;;;30.77;100.00;100339.34;4921706;29;20418;-71
2021/08/02 05:26:08;;;;;;;25.08;13.38;;;;;;;30.51;100.00;100343.09;4920245;29;20024;-72
2021/08/02 05:28:54;;;;;;;25.80;13.52;;;;;;;30.50;100.00;100346.81;4921474;29;20016;-72
2021/08/02 05:31:40;;;;;;;23.55;13.38;;;;;;;30.71;100.00;100340.03;4921003;29;20115;-71
2021/08/02 05:34:25;;;;;;;22.00;13.27;;;;;;;31.09;98.37;100341.28;4920456;29;20461;-71
2021/08/02 05:37:13;;;;;;;36.15;13.60;;;;;;;30.74;99.30;100338.84;4921473;29;20044;-71
2021/08/02 05:39:59;;;;;;;24.55;13.27;;;;;;;30.99;97.90;100341.41;4921474;29;20469;-72
2021/08/02 05:42:44;;;;;;;16.67;12.38;;;;;;;31.35;93.73;100339.31;4921074;29;20032;-71
2021/08/02 05:45:30;;;;;;;24.58;12.63;;;;;;;31.41;94.08;100340.53;4921529;29;20028;-72
2021/08/02 05:48:16;;;;;;;25.30;13.48;;;;;;;31.23;95.50;100346.91;4921459;29;20035;-72
2021/08/02 05:51:02;;;;;;;32.38;14.68;;;;;;;31.28;95.61;100349.13;4920338;29;20072;-72
2021/08/02 05:53:47;;;;;;;24.20;13.43;;;;;;;31.39;94.57;100352.34;4920902;29;20027;-72
2021/08/02 05:56:33;;;;;;;32.38;13.18;;;;;;;31.77;91.82;100356.28;4920887;29;20036;-72
2021/08/02 05:59:19;;;;;;;35.90;19.88;;;;;;;31.91;90.93;100369.16;4921172;29;20072;-72
2021/08/02 06:02:05;;;;;;;48.22;23.92;;;;;;;31.42;92.88;100370.13;4920854;29;20035;-73
2021/08/02 06:04:51;;;;;;;29.67;14.23;;;;;;;31.38;94.77;100359.81;4921067;29;20060;-72
2021/08/02 06:07:41;;;;;;;25.23;12.80;;;;;;;31.92;91.21;100364.56;4919779;29;20171;-71
2021/08/02 06:10:27;;;;;;;29.35;13.88;;;;;;;32.32;90.12;100364.50;4920401;29;20369;-72
2021/08/02 06:13:13;;;;;;;31.25;14.45;;;;;;;32.53;88.74;100362.91;4919951;29;20152;-73
2021/08/02 06:15:58;;;;;;;33.45;13.75;;;;;;;32.63;86.92;100360.84;4919930;29;20029;-71
2021/08/02 06:18:44;;;;;;;30.70;14.05;;;;;;;32.62;87.53;100358.31;4920411;29;20091;-72
2021/08/02 06:21:30;;;;;;;32.00;13.35;;;;;;;32.77;86.50;100360.09;4920717;29;20046;-71
2021/08/02 06:24:16;;;;;;;26.70;12.98;;;;;;;32.95;80.17;100363.41;4920106;29;20036;-71
2021/08/02 06:27:01;;;;;;;26.98;12.38;;;;;;;33.38;78.80;100354.69;4920283;29;20346;-72
2021/08/02 06:29:47;;;;;;;25.67;12.68;;;;;;;33.43;74.25;100359.59;4919368;29;20031;-72
2021/08/02 06:32:33;;;;;;;28.95;13.10;;;;;;;33.03;76.11;100355.22;4920432;29;20020;-72
2021/08/02 06:35:19;;;;;;;30.85;12.20;;;;;;;33.29;69.10;100346.72;4919751;29;20068;-72
2021/08/02 06:38:05;;;;;;;22.25;11.10;;;;;;;33.69;63.46;100343.72;4919832;29;20059;-72
2021/08/02 06:40:50;;;;;;;27.98;12.45;;;;;;;33.60;64.76;100361.13;4920312;29;20032;-72
2021/08/02 06:43:36;;;;;;;26.88;12.00;;;;;;;33.83;65.38;100346.50;4920767;29;20481;-71
2021/08/02 06:46:22;;;;;;;32.28;12.85;;;;;;;34.36;62.60;100349.03;4919672;29;20075;-71
2021/08/02 06:49:08;;;;;;;28.83;12.18;;;;;;;34.38;65.00;100343.41;4919796;29;20119;-70
2021/08/02 06:51:53;;;;;;;23.98;12.85;;;;;;;34.47;67.38;100347.72;4920140;29;20028;-70
2021/08/02 06:54:39;;;;;;;29.70;12.57;;;;;;;34.60;63.32;100345.19;4919046;29;20047;-71
2021/08/02 06:57:25;;;;;;;27.23;12.32;;;;;;;34.46;63.30;100343.31;4918960;29;20050;-71
2021/08/02 07:00:11;;;;;;;23.27;11.43;;;;;;;34.66;61.00;100347.13;4918818;29;20039;-71
2021/08/02 07:02:59;;;;;;;26.52;11.57;;;;;;;34.81;59.98;100345.25;4920345;29;20376;-72
2021/08/02 07:05:45;;;;;;;26.92;11.57;;;;;;;34.76;57.34;100348.50;4918785;29;20032;-72
2021/08/02 07:08:31;;;;;;;26.40;11.30;;;;;;;34.78;57.05;100348.31;4920005;29;20036;-72
2021/08/02 07:11:18;;;;;;;27.83;10.57;;;;;;;35.20;54.19;100352.00;4919112;29;20031;-72
2021/08/02 07:14:04;;;;;;;21.55;10.13;;;;;;;35.02;52.58;100350.75;4919528;29;20024;-71
2021/08/02 07:16:49;;;;;;;24.40;10.35;;;;;;;35.02;50.81;100353.47;4919906;29;20536;-71
2021/08/02 07:19:35;;;;;;;24.80;9.32;;;;;;;35.55;46.87;100342.09;4919080;29;20043;-71
2021/08/02 07:22:21;;;;;;;26.33;9.30;;;;;;;35.46;44.26;100342.44;4918967;29;20032;-71
2021/08/02 07:25:08;;;;;;;24.95;9.48;;;;;;;35.58;44.76;100349.91;4918068;29;20409;-71
2021/08/02 07:27:53;;;;;;;28.63;9.88;;;;;;;35.27;45.47;100343.88;4919076;29;20032;-71
2021/08/02 07:30:39;;;;;;;31.20;10.27;;;;;;;34.94;46.52;100348.13;4918427;29;20028;-71
2021/08/02 07:33:25;;;;;;;22.65;8.90;;;;;;;35.54;45.80;100345.88;4918754;29;20028;-71
2021/08/02 07:36:11;;;;;;;20.02;9.25;;;;;;;35.83;44.63;100343.00;4918478;29;20155;-71
2021/08/02 07:38:57;;;;;;;26.38;8.85;;;;;;;35.97;44.14;100346.69;4918189;29;20126;-71
2021/08/02 07:41:42;;;;;;;25.80;9.48;;;;;;;36.47;43.70;100347.25;4918669;29;20036;-72
2021/08/02 07:44:28;;;;;;;24.10;8.57;;;;;;;35.55;43.55;100353.00;4918425;29;20342;-72
2021/08/02 07:47:14;;;;;;;25.70;9.25;;;;;;;36.18;43.53;100355.66;4918967;29;20179;-72
2021/08/02 07:50:00;;;;;;;18.23;8.48;;;;;;;36.78;42.08;100361.31;4918271;29;20032;-71
2021/08/02 07:52:46;;;;;;;24.98;8.75;;;;;;;36.67;41.88;100359.09;4918565;29;20032;-71
2021/08/02 07:55:31;;;;;;;22.88;8.60;;;;;;;37.06;40.74;100367.50;4917957;29;20115;-71
2021/08/02 07:58:17;;;;;;;29.85;9.57;;;;;;;37.21;40.94;100368.19;4918026;29;20503;-70
2021/08/02 08:01:06;;;;;;;29.23;9.25;;;;;;;37.07;40.39;100363.72;4918305;29;20354;-70
2021/08/02 08:03:52;;;;;;;29.20;9.20;;;;;;;37.01;42.14;100367.28;4919354;29;20429;-71
2021/08/02 08:06:38;;;;;;;28.33;9.60;;;;;;;37.31;41.07;100371.38;4918642;29;20036;-71
2021/08/02 08:09:24;;;;;;;27.95;9.15;;;;;;;37.44;40.90;100368.66;4917998;29;20051;-72
2021/08/02 08:12:10;;;;;;;30.92;10.18;;;;;;;37.21;41.62;100370.09;4918505;29;20115;-72
2021/08/02 08:14:56;;;;;;;23.88;9.68;;;;;;;36.80;43.88;100370.13;4919131;29;20441;-71
2021/08/02 08:17:42;;;;;;;22.73;9.98;;;;;;;37.50;42.26;100367.84;4917962;29;20094;-71
2021/08/02 08:20:27;;;;;;;29.70;9.95;;;;;;;36.99;43.85;100366.63;4917867;29;20032;-71
2021/08/02 08:23:13;;;;;;;28.08;9.77;;;;;;;38.06;42.33;100355.50;4918202;29;20115;-71
2021/08/02 08:26:00;;;;;;;19.67;9.52;;;;;;;38.37;42.15;100363.84;4917914;29;20028;-71
2021/08/02 08:28:46;;;;;;;29.58;9.80;;;;;;;38.63;41.11;100358.34;4918288;29;20346;-71
2021/08/02 08:31:33;;;;;;;29.38;10.02;;;;;;;38.57;41.05;100358.38;4917804;29;20028;-71
2021/08/02 08:34:19;;;;;;;29.88;9.27;;;;;;;39.50;39.63;100363.19;4917944;29;20123;-71
2021/08/02 08:37:05;;;;;;;28.48;9.90;;;;;;;38.57;40.54;100352.88;4917666;29;20024;-71
2021/08/02 08:39:50;;;;;;;27.15;9.90;;;;;;;38.74;41.41;100354.91;4918013;29;20442;-71
2021/08/02 08:42:39;;;;;;;24.23;9.18;;;;;;;39.33;39.91;100353.78;4917457;29;20323;-71
2021/08/02 08:45:25;;;;;;;34.33;9.93;;;;;;;39.28;39.13;100356.38;4918113;29;20028;-71
2021/08/02 08:48:11;;;;;;;28.63;9.70;;;;;;;39.57;38.52;100345.63;4917778;29;20020;-71
2021/08/02 08:51:01;;;;;;;29.77;9.23;;;;;;;39.58;38.13;100350.06;4917657;29;20068;-72
2021/08/02 08:53:48;;;;;;;28.40;10.02;;;;;;;39.31;36.57;100344.94;4917166;29;20115;-70
2021/08/02 08:56:34;;;;;;;27.67;8.85;;;;;;;39.60;36.38;100342.44;4918807;29;20145;-72
2021/08/02 08:59:20;;;;;;;29.25;9.50;;;;;;;40.01;36.43;100350.16;4917819;29;20040;-72
2021/08/02 09:02:05;;;;;;;24.15;9.45;;;;;;;39.65;35.74;100344.53;4917288;29;20034;-72
2021/08/02 09:04:56;;;;;;;26.70;9.05;;;;;;;39.79;35.61;100343.38;4917389;29;20033;-72
2021/08/02 09:07:43;;;;;;;31.30;10.18;;;;;;;39.74;35.76;100343.16;4917334;29;20038;-72
2021/08/02 09:10:29;;;;;;;25.27;10.15;;;;;;;39.98;35.69;100345.09;4916981;29;20107;-72
2021/08/02 09:13:15;;;;;;;24.05;9.02;;;;;;;40.04;34.49;100336.78;4917533;29;20449;-72
2021/08/02 09:16:13;;;;;;;30.38;10.38;;;;;;;40.52;34.51;100342.44;4916988;29;20040;-72
2021/08/02 09:19:03;;;;;;;27.05;9.98;;;;;;;39.94;35.73;100338.38;4917616;29;20024;-72
2021/08/02 09:21:54;;;;;;;30.77;10.27;;;;;;;40.09;35.36;100338.88;4917621;29;20135;-72
2021/08/02 09:24:40;;;;;;;27.02;9.75;;;;;;;40.12;35.92;100342.00;4917725;29;20036;-72
2021/08/02 09:27:27;;;;;;;28.33;9.57;;;;;;;40.35;35.56;100338.63;4917504;29;20051;-72
2021/08/02 09:30:19;;;;;;;28.75;9.35;;;;;;;40.67;34.00;100346.50;4917346;29;20024;-72
2021/08/02 09:33:06;;;;;;;26.48;9.05;;;;;;;40.38;33.40;100338.16;4917273;29;20047;-72
2021/08/02 09:35:52;;;;;;;28.40;9.35;;;;;;;39.84;33.23;100327.91;4917172;29;20024;-72
2021/08/02 09:38:38;;;;;;;39.65;9.68;;;;;;;40.37;33.59;100339.25;4916644;29;20024;-72
2021/08/02 09:41:24;;;;;;;27.63;9.40;;;;;;;40.13;31.95;100331.88;4917287;29;20453;-72
2021/08/02 09:44:23;;;;;;;30.65;9.23;;;;;;;40.49;31.42;100338.22;4916322;29;20038;-72
2021/08/02 09:47:08;;;;;;;26.90;8.52;;;;;;;40.65;31.65;100336.81;4917282;29;20491;-72
2021/08/02 09:49:55;;;;;;;28.45;8.15;;;;;;;40.45;30.49;100330.69;4916256;29;20059;-72
2021/08/02 09:52:51;;;;;;;21.67;7.50;;;;;;;40.74;30.91;100329.94;4917923;29;20063;-72
2021/08/02 09:55:38;;;;;;;30.05;7.50;;;;;;;40.44;30.98;100326.25;4916740;29;20115;-72
2021/08/02 09:58:23;;;;;;;28.65;8.27;;;;;;;40.15;31.90;100333.31;4916837;29;20465;-72
2021/08/02 10:01:15;;;;;;;23.50;8.00;;;;;;;40.66;30.88;100327.50;4916985;29;20028;-72
2021/08/02 10:04:01;;;;;;;30.10;8.00;;;;;;;40.77;29.86;100329.50;4918266;29;20028;-72
2021/08/02 10:06:47;;;;;;;27.13;7.68;;;;;;;40.75;29.32;100328.88;4920380;29;20398;-70
2021/08/02 10:09:34;;;;;;;30.58;8.00;;;;;;;40.05;28.26;100318.44;4920429;29;20020;-70
2021/08/02 10:12:20;;;;;;;26.95;7.72;;;;;;;40.01;27.33;100320.78;4920025;29;20114;-72
2021/08/02 10:15:08;;;;;;;23.90;7.25;;;;;;;40.79;27.75;100330.06;4920227;29;20098;-71
2021/08/02 10:17:56;;;;;;;23.60;7.20;;;;;;;40.43;25.90;100324.56;4920490;29;20075;-71
2021/08/02 10:20:42;;;;;;;26.02;6.50;;;;;;;40.57;25.60;100317.88;4920412;29;20047;-72
2021/08/02 10:23:28;;;;;;;25.63;6.72;;;;;;;39.81;25.83;100311.06;4920285;29;20028;-72
2021/08/02 10:26:26;;;;;;;34.08;6.95;;;;;;;39.60;25.99;100314.19;4919763;29;20028;-71
2021/08/02 10:29:12;;;;;;;27.42;6.50;;;;;;;39.89;25.17;100305.28;4920687;29;20083;-71
2021/08/02 10:31:58;;;;;;;28.38;6.38;;;;;;;39.83;25.66;100307.03;4919919;29;20036;-72
2021/08/02 10:34:56;;;;;;;26.23;7.18;;;;;;;39.77;26.06;100304.34;4920088;29;20048;-71
2021/08/02 10:37:42;;;;;;;21.13;6.63;;;;;;;40.23;26.26;100310.22;4920128;29;20097;-70
2021/08/02 10:40:27;;;;;;;29.30;7.03;;;;;;;40.73;26.11;100312.59;4920000;29;20054;-71
2021/08/02 10:43:28;;;;;;;25.83;6.55;;;;;;;40.65;25.78;100304.69;4919455;29;20020;-72
2021/08/02 10:46:20;;;;;;;21.45;6.70;;;;;;;39.36;26.38;100295.81;4919879;29;20051;-72
2021/08/02 10:49:14;;;;;;;23.08;6.80;;;;;;;40.17;26.19;100294.66;4918919;29;20059;-70
2021/08/02 10:52:03;;;;;;;22.45;6.63;;;;;;;40.48;26.23;100283.50;4919930;29;20124;-70
2021/08/02 10:54:49;;;;;;;27.95;7.25;;;;;;;40.74;26.40;100286.78;4919474;29;20577;-71
2021/08/02 10:57:35;;;;;;;21.42;6.50;;;;;;;41.25;25.64;100287.13;4919410;29;20056;-71
2021/08/02 11:00:21;;;;;;;27.48;6.70;;;;;;;40.94;25.51;100284.59;4919709;29;20457;-71
2021/08/02 11:03:08;;;;;;;26.42;6.78;;;;;;;40.58;25.31;100278.34;4919590;29;20553;-71
2021/08/02 11:05:54;;;;;;;26.27;6.80;;;;;;;40.60;25.42;100270.72;4918987;29;20366;-71
2021/08/02 11:08:45;;;;;;;25.52;5.93;;;;;;;41.01;24.75;100268.06;4919427;29;20024;-71
2021/08/02 11:11:34;;;;;;;25.77;6.85;;;;;;;41.07;25.02;100269.88;4919889;29;20043;-73
2021/08/02 11:14:20;;;;;;;28.83;5.88;;;;;;;41.43;24.26;100272.50;4918755;29;20051;-72
2021/08/02 11:17:14;;;;;;;26.20;6.55;;;;;;;41.29;24.34;100270.97;4919235;29;20051;-72
2021/08/02 11:20:05;;;;;;;25.20;6.13;;;;;;;41.19;24.77;100265.25;4919149;29;20035;-71
2021/08/02 11:22:56;;;;;;;28.77;6.25;;;;;;;41.11;24.43;100265.56;4919184;29;20032;-70
2021/08/02 11:25:42;;;;;;;25.25;6.22;;;;;;;41.44;24.37;100255.75;4918612;29;20023;-71
2021/08/02 11:28:40;;;;;;;27.80;6.35;;;;;;;41.59;24.13;100256.13;4918858;29;20120;-71
2021/08/02 11:31:26;;;;;;;27.10;6.47;;;;;;;41.14;23.96;100254.94;4918680;29;20115;-71
2021/08/02 11:34:18;;;;;;;25.38;5.53;;;;;;;41.16;24.32;100255.56;4919176;29;20027;-71
2021/08/02 11:37:10;;;;;;;22.60;5.80;;;;;;;41.46;24.17;100252.78;4918378;29;20036;-71
2021/08/02 11:39:59;;;;;;;23.52;6.00;;;;;;;40.82;23.86;100252.66;4919206;29;20032;-72
2021/08/02 11:42:47;;;;;;;25.15;6.20;;;;;;;41.75;24.52;100247.13;4918523;29;20115;-72
2021/08/02 11:45:34;;;;;;;18.20;5.65;;;;;;;41.93;23.25;100243.44;4918450;29;20430;-72
2021/08/02 11:48:22;;;;;;;23.27;5.43;;;;;;;41.77;23.39;100242.25;4918895;29;20034;-71
2021/08/02 11:51:10;;;;;;;22.15;5.50;;;;;;;42.30;23.21;100245.69;4918310;29;20059;-71
2021/08/02 11:53:58;;;;;;;33.25;6.15;;;;;;;42.31;23.20;100246.53;4918524;29;20373;-72
2021/08/02 11:56:44;;;;;;;24.17;5.82;;;;;;;41.85;23.51;100241.06;4918184;29;20067;-72
2021/08/02 11:59:30;;;;;;;29.45;6.15;;;;;;;42.18;22.70;100244.84;4918319;29;20373;-73
2021/08/02 12:02:16;;;;;;;30.42;5.95;;;;;;;41.14;22.79;100237.63;4917415;29;20035;-73
2021/08/02 12:05:07;;;;;;;19.33;5.93;;;;;;;41.27;22.20;100248.41;4918379;29;20040;-73
2021/08/02 12:07:53;;;;;;;24.73;5.50;;;;;;;41.10;22.74;100250.16;4917196;29;20028;-73
2021/08/02 12:10:42;;;;;;;39.00;6.57;;;;;;;41.23;22.56;100237.03;4918881;29;20032;-72
2021/08/02 12:13:41;;;;;;;26.58;5.50;;;;;;;40.82;22.75;100234.25;4916943;29;20028;-73
2021/08/02 12:16:30;;;;;;;25.98;5.90;;;;;;;40.87;23.21;100231.66;4918374;29;20032;-73
2021/08/02 12:19:16;;;;;;;24.45;5.95;;;;;;;42.24;22.76;100226.53;4917755;29;20036;-72
2021/08/02 12:22:01;;;;;;;26.00;6.05;;;;;;;42.12;23.31;100233.97;4917711;29;20087;-73
2021/08/02 12:24:56;;;;;;;25.20;6.07;;;;;;;42.03;23.28;100240.94;4917821;29;20028;-72
2021/08/02 12:27:42;;;;;;;20.27;5.60;;;;;;;42.78;22.03;100238.97;4917115;29;20031;-73
2021/08/02 12:30:27;;;;;;;24.08;5.72;;;;;;;42.15;22.20;100228.78;4917266;29;20024;-72
2021/08/02 12:33:13;;;;;;;20.77;6.28;;;;;;;42.23;22.20;100241.41;4918010;29;20028;-72
2021/08/02 12:35:59;;;;;;;20.33;5.50;;;;;;;42.29;22.06;100240.41;4917574;29;20107;-73
2021/08/02 12:38:49;;;;;;;29.08;6.20;;;;;;;42.52;22.50;100229.34;4917938;29;20028;-73
2021/08/02 12:41:37;;;;;;;19.75;5.80;;;;;;;42.30;22.66;100239.31;4917659;29;20103;-73
2021/08/02 12:44:23;;;;;;;21.35;5.80;;;;;;;42.37;22.45;100225.44;4917446;29;20044;-73
2021/08/02 12:47:09;;;;;;;27.15;6.25;;;;;;;42.35;22.06;100228.44;4917452;29;20164;-73